Time;durP1;ratioP1;P1;durP2;ratioP2;P2;SDS_P1;SDS_P2;PMS_P1;PMS_P2;Temp;Humidity;BMP_temperature;BMP_pressure;BME280_temperature;BME280_humidity;BME280_pressure;Samples;Min_cycle;Max_cycle;Signal;HPM_P1;HPM_P2
2021/07/03 00:00:12;;;;;;;10.00;7.30;;;;;;;16.78;69.70;99948.50;2205602;40;20027;-84
2021/07/03 00:01:44;;;;;;;11.60;7.60;;;;;;;16.83;69.49;99943.38;2205361;40;20083;-84
2021/07/03 00:03:15;;;;;;;10.40;7.28;;;;;;;16.86;69.10;99947.56;2205242;40;20035;-84
2021/07/03 00:04:47;;;;;;;9.18;7.00;;;;;;;16.94;69.08;99947.50;2205499;40;20112;-83
2021/07/03 00:06:19;;;;;;;10.00;7.22;;;;;;;16.97;68.73;99944.41;2205564;40;20039;-83
2021/07/03 00:07:51;;;;;;;10.95;7.35;;;;;;;17.01;68.63;99943.00;2204918;40;20043;-83
2021/07/03 00:09:21;;;;;;;10.00;7.35;;;;;;;17.03;68.54;99940.97;2205471;40;20039;-83
2021/07/03 00:10:53;;;;;;;11.35;8.10;;;;;;;17.08;68.25;99948.50;2205622;40;20043;-84
2021/07/03 00:12:25;;;;;;;9.63;6.85;;;;;;;17.10;68.20;99944.56;2205925;40;20463;-83
2021/07/03 00:13:58;;;;;;;9.00;6.72;;;;;;;17.17;67.85;99938.38;2205680;40;20041;-84
2021/07/03 00:15:30;;;;;;;10.30;7.97;;;;;;;17.17;67.80;99944.66;2206351;40;20041;-83
2021/07/03 00:17:03;;;;;;;9.55;6.97;;;;;;;17.19;67.68;99949.84;2205912;40;20047;-86
2021/07/03 00:18:35;;;;;;;10.43;8.02;;;;;;;17.20;67.42;99941.53;2205142;40;20093;-84
2021/07/03 00:20:08;;;;;;;11.75;7.85;;;;;;;17.19;67.35;99952.53;2205409;40;20027;-85
2021/07/03 00:21:40;;;;;;;10.82;8.07;;;;;;;17.13;67.58;99952.28;2205842;40;20034;-85
2021/07/03 00:23:12;;;;;;;11.20;8.25;;;;;;;17.10;67.81;99958.06;2205251;40;20030;-84
2021/07/03 00:24:43;;;;;;;11.65;8.52;;;;;;;17.08;67.96;99959.28;2205154;40;20299;-84
2021/07/03 00:26:14;;;;;;;13.50;9.05;;;;;;;17.05;67.99;99960.47;2205297;40;20042;-85
2021/07/03 00:27:46;;;;;;;13.93;8.82;;;;;;;17.03;68.35;99953.59;2205277;40;20041;-84
2021/07/03 00:29:18;;;;;;;15.23;8.85;;;;;;;16.99;68.41;99959.41;2211128;40;20053;-84
2021/07/03 00:30:50;;;;;;;9.90;7.47;;;;;;;16.99;68.46;99959.41;2211253;40;20510;-83
2021/07/03 00:32:21;;;;;;;10.23;7.72;;;;;;;16.98;68.67;99957.72;2205075;40;20366;-83
2021/07/03 00:33:53;;;;;;;10.88;7.97;;;;;;;17.04;68.52;99957.97;2205164;40;20037;-85
2021/07/03 00:35:25;;;;;;;11.90;7.63;;;;;;;17.07;68.52;99953.03;2205541;40;20176;-84
2021/07/03 00:36:57;;;;;;;10.02;6.78;;;;;;;17.07;68.36;99953.03;2206844;40;20034;-85
2021/07/03 00:38:28;;;;;;;9.25;6.63;;;;;;;17.13;68.66;99948.75;2206500;40;20039;-85
2021/07/03 00:39:59;;;;;;;12.27;9.07;;;;;;;17.17;68.38;99954.59;2206498;40;20362;-84
2021/07/03 00:41:31;;;;;;;10.20;7.85;;;;;;;17.16;68.38;99953.78;2206106;40;20045;-84
2021/07/03 00:43:03;;;;;;;13.10;8.45;;;;;;;17.15;68.30;99958.31;2205763;40;20038;-84
2021/07/03 00:44:37;;;;;;;12.07;8.25;;;;;;;17.16;68.28;99959.19;2206509;40;20068;-85
2021/07/03 00:46:09;;;;;;;10.82;7.43;;;;;;;17.14;68.08;99951.25;2207026;40;20057;-85
2021/07/03 00:47:41;;;;;;;11.88;7.60;;;;;;;17.16;68.20;99951.06;2206950;40;20030;-86
2021/07/03 00:49:13;;;;;;;9.80;6.82;;;;;;;17.18;68.09;99954.44;2207029;40;20039;-83
2021/07/03 00:50:44;;;;;;;14.45;9.93;;;;;;;17.15;68.05;99950.22;2206991;40;20034;-84
2021/07/03 00:52:16;;;;;;;11.82;8.65;;;;;;;17.10;68.28;99943.72;2206893;40;20022;-84
2021/07/03 00:53:48;;;;;;;13.60;9.13;;;;;;;17.05;68.33;99948.84;2206850;40;20034;-84
2021/07/03 00:55:19;;;;;;;12.35;9.35;;;;;;;16.96;68.38;99950.81;2207039;40;20042;-84
2021/07/03 00:57:01;;;;;;;10.85;8.82;;;;;;;16.89;68.61;99945.31;2206592;40;20031;-85
2021/07/03 00:58:33;;;;;;;12.02;8.30;;;;;;;16.82;68.84;99947.09;2207511;40;20108;-84
2021/07/03 01:00:08;;;;;;;12.90;8.38;;;;;;;16.78;68.79;99945.81;2207520;40;20076;-85
2021/07/03 01:01:40;;;;;;;12.25;8.85;;;;;;;16.75;68.94;99946.16;2206883;40;20084;-83
2021/07/03 01:03:12;;;;;;;10.90;7.90;;;;;;;16.69;69.10;99945.91;2207031;40;20038;-85
2021/07/03 01:04:45;;;;;;;13.25;9.20;;;;;;;16.69;69.18;99943.22;2206825;40;20039;-84
2021/07/03 01:06:17;;;;;;;12.15;8.82;;;;;;;16.63;69.26;99953.91;2207954;40;20074;-84
2021/07/03 01:07:49;;;;;;;12.60;8.98;;;;;;;16.58;69.64;99942.84;2207128;40;20038;-82
2021/07/03 01:09:20;;;;;;;13.52;8.95;;;;;;;16.53;69.61;99946.09;2206691;40;20082;-86
2021/07/03 01:10:52;;;;;;;12.23;8.43;;;;;;;16.50;69.71;99949.16;2206729;40;20483;-83
2021/07/03 01:12:23;;;;;;;12.68;9.65;;;;;;;16.46;70.04;99951.41;2206144;40;20061;-84
2021/07/03 01:13:55;;;;;;;12.45;8.48;;;;;;;16.43;70.00;99957.16;2208108;40;20026;-84
2021/07/03 01:15:28;;;;;;;13.30;8.80;;;;;;;16.42;69.92;99949.25;2206804;40;20346;-84
2021/07/03 01:17:01;;;;;;;11.98;8.57;;;;;;;16.38;70.31;99954.19;2206444;40;20045;-84
2021/07/03 01:18:33;;;;;;;10.95;9.27;;;;;;;16.37;70.23;99958.75;2206597;40;20031;-83
2021/07/03 01:20:06;;;;;;;13.65;9.00;;;;;;;16.35;70.30;99955.38;2206671;40;20034;-85
2021/07/03 01:21:39;;;;;;;10.60;7.60;;;;;;;16.36;70.39;99957.06;2206381;40;20043;-85
2021/07/03 01:23:12;;;;;;;11.27;8.35;;;;;;;16.40;70.18;99954.00;2206522;40;20043;-86
2021/07/03 01:24:43;;;;;;;14.48;8.80;;;;;;;16.38;70.15;99956.91;2207240;40;20034;-83
2021/07/03 01:26:16;;;;;;;12.48;9.82;;;;;;;16.36;70.36;99954.34;2205899;40;20043;-84
2021/07/03 01:28:05;;;;;;;12.70;8.35;;;;;;;16.34;70.29;99956.41;2206510;40;20030;-83
2021/07/03 01:29:37;;;;;;;10.45;7.75;;;;;;;16.30;70.57;99955.09;2205976;40;20049;-87
2021/07/03 01:31:09;;;;;;;11.45;8.68;;;;;;;16.23;70.91;99954.19;2206889;40;20034;-84
2021/07/03 01:32:40;;;;;;;11.30;8.82;;;;;;;16.17;71.30;99957.59;2206945;40;20589;-83
2021/07/03 01:34:14;;;;;;;10.32;7.68;;;;;;;16.16;71.56;99947.81;2206765;40;20292;-84
2021/07/03 01:35:46;;;;;;;11.88;7.85;;;;;;;16.16;71.45;99954.06;2207298;40;20030;-84
2021/07/03 01:37:18;;;;;;;10.98;7.13;;;;;;;16.18;71.49;99957.44;2207073;40;20042;-84
2021/07/03 01:38:51;;;;;;;9.55;7.53;;;;;;;16.21;71.42;99959.75;2207310;40;20041;-84
2021/07/03 01:40:23;;;;;;;11.63;7.30;;;;;;;16.27;71.18;99952.78;2207446;40;20031;-85
2021/07/03 01:41:55;;;;;;;10.20;7.28;;;;;;;16.35;71.20;99952.69;2206164;40;20042;-86
2021/07/03 01:43:29;;;;;;;11.30;7.45;;;;;;;16.44;70.92;99950.75;2209343;40;20030;-85
2021/07/03 01:45:01;;;;;;;9.88;6.35;;;;;;;16.48;70.93;99953.91;2209980;40;20034;-85
2021/07/03 01:46:33;;;;;;;10.55;7.25;;;;;;;16.54;70.56;99945.06;2210008;40;20034;-84
2021/07/03 01:48:05;;;;;;;13.35;9.02;;;;;;;16.51;70.41;99938.19;2209922;40;20038;-84
2021/07/03 01:49:38;;;;;;;12.18;9.27;;;;;;;16.44;70.58;99941.78;2210088;40;20034;-85
2021/07/03 01:51:10;;;;;;;12.75;9.15;;;;;;;16.38;70.42;99941.53;2209953;40;20054;-84
2021/07/03 01:52:42;;;;;;;11.07;7.60;;;;;;;16.35;70.46;99947.28;2210107;40;20034;-86
2021/07/03 01:54:16;;;;;;;12.68;8.18;;;;;;;16.37;70.56;99957.91;2210017;40;20034;-85
2021/07/03 01:55:48;;;;;;;9.40;7.20;;;;;;;16.37;70.48;99947.94;2210550;40;20030;-84
2021/07/03 01:57:19;;;;;;;9.82;6.90;;;;;;;16.40;70.46;99945.91;2210162;40;20469;-84
2021/07/03 01:58:51;;;;;;;10.07;7.82;;;;;;;16.41;70.28;99952.97;2210217;40;20041;-86
2021/07/03 02:00:29;;;;;;;9.68;7.53;;;;;;;16.44;69.87;99941.78;2209913;40;20027;-85
2021/07/03 02:02:01;;;;;;;11.48;7.55;;;;;;;16.46;69.96;99945.16;2210323;40;20053;-85
2021/07/03 02:03:33;;;;;;;11.50;7.45;;;;;;;16.46;69.87;99943.31;2209990;40;20085;-84
2021/07/03 02:05:06;;;;;;;10.20;6.72;;;;;;;16.47;70.13;99946.84;2209871;40;20027;-83
2021/07/03 02:06:38;;;;;;;11.90;7.70;;;;;;;16.50;69.88;99943.78;2209833;40;20030;-83
2021/07/03 02:08:09;;;;;;;9.77;6.55;;;;;;;16.48;70.18;99948.50;2209596;40;20022;-84
2021/07/03 02:09:42;;;;;;;10.20;7.15;;;;;;;16.50;70.16;99944.59;2209969;40;20038;-83
2021/07/03 02:11:14;;;;;;;12.35;7.85;;;;;;;16.44;70.36;99942.66;2209763;40;20034;-83
2021/07/03 02:12:45;;;;;;;11.82;8.35;;;;;;;16.38;70.92;99944.22;2209896;40;20026;-84
2021/07/03 02:14:16;;;;;;;10.60;7.80;;;;;;;16.33;71.06;99945.81;2209887;40;20038;-83
2021/07/03 02:15:48;;;;;;;14.18;8.77;;;;;;;16.26;71.54;99945.69;2209927;40;20038;-84
2021/07/03 02:17:20;;;;;;;13.30;9.50;;;;;;;16.17;71.89;99947.66;2206979;40;20058;-83
2021/07/03 02:18:52;;;;;;;14.43;9.20;;;;;;;16.14;72.28;99949.88;2207294;40;20363;-85
2021/07/03 02:20:24;;;;;;;12.05;8.52;;;;;;;16.10;72.44;99953.97;2208753;40;20041;-83
2021/07/03 02:21:56;;;;;;;10.60;8.35;;;;;;;16.09;72.53;99949.59;2213592;40;20041;-85
2021/07/03 02:23:28;;;;;;;12.35;8.38;;;;;;;16.13;72.46;99946.34;2218175;40;20049;-81
2021/07/03 02:25:01;;;;;;;10.77;8.43;;;;;;;16.16;72.79;99942.44;2215937;40;20445;-81
2021/07/03 02:26:32;;;;;;;9.35;7.10;;;;;;;16.18;72.60;99943.09;2214019;40;20030;-83
2021/07/03 02:28:07;;;;;;;12.63;7.78;;;;;;;16.25;72.38;99938.63;2213992;40;20045;-83
2021/07/03 02:29:42;;;;;;;9.65;7.10;;;;;;;16.26;72.28;99951.09;2212730;40;20055;-82
2021/07/03 02:31:14;;;;;;;13.32;9.13;;;;;;;16.31;72.24;99947.84;2214976;40;20034;-85
2021/07/03 02:32:46;;;;;;;11.85;8.00;;;;;;;16.31;72.33;99945.16;2215898;40;20034;-85
2021/07/03 02:34:21;;;;;;;11.38;7.90;;;;;;;16.32;72.35;99944.13;2209883;40;20029;-82
2021/07/03 02:35:51;;;;;;;11.50;7.60;;;;;;;16.32;72.49;99946.81;2212185;40;20061;-82
2021/07/03 02:37:24;;;;;;;10.77;7.57;;;;;;;16.31;72.58;99948.69;2218125;40;20360;-84
2021/07/03 02:38:56;;;;;;;10.07;7.07;;;;;;;16.36;72.37;99946.25;2215021;40;20053;-83
2021/07/03 02:40:29;;;;;;;9.07;7.00;;;;;;;16.36;72.51;99940.88;2214220;40;20030;-79
2021/07/03 02:42:02;;;;;;;10.55;7.82;;;;;;;16.36;72.34;99948.97;2210534;40;20038;-83
2021/07/03 02:43:33;;;;;;;9.68;7.35;;;;;;;16.33;72.04;99941.25;2217500;40;20041;-82
2021/07/03 02:45:07;;;;;;;11.45;8.13;;;;;;;16.25;71.83;99952.13;2218334;40;20046;-83
2021/07/03 02:46:39;;;;;;;13.35;8.45;;;;;;;16.17;71.98;99958.44;2207592;40;20038;-85
2021/07/03 02:48:11;;;;;;;12.63;7.93;;;;;;;16.06;72.26;99948.09;2207036;40;20041;-84
2021/07/03 02:49:43;;;;;;;10.82;8.02;;;;;;;15.99;72.34;99939.06;2208401;40;20043;-85
2021/07/03 02:51:14;;;;;;;12.68;8.35;;;;;;;15.96;72.53;99942.97;2206962;40;20476;-83
2021/07/03 02:52:46;;;;;;;11.38;8.82;;;;;;;15.91;72.26;99942.69;2208836;40;20054;-84
2021/07/03 02:54:18;;;;;;;12.25;9.23;;;;;;;15.85;72.38;99946.09;2209561;40;20030;-84
2021/07/03 02:55:52;;;;;;;11.43;9.30;;;;;;;15.77;72.58;99946.97;2209773;40;20110;-85
2021/07/03 02:57:24;;;;;;;12.38;9.15;;;;;;;15.68;72.99;99951.56;2209844;40;20031;-83
2021/07/03 02:58:56;;;;;;;13.38;8.88;;;;;;;15.63;73.23;99943.22;2208376;40;20043;-84
2021/07/03 03:00:29;;;;;;;9.77;7.35;;;;;;;15.57;73.23;99946.63;2207832;40;20022;-83
2021/07/03 03:02:01;;;;;;;9.88;7.40;;;;;;;15.57;73.21;99958.25;2209795;40;20038;-84
2021/07/03 03:03:32;;;;;;;12.18;8.32;;;;;;;15.57;73.14;99944.75;2209767;40;20035;-83
2021/07/03 03:05:05;;;;;;;12.15;7.80;;;;;;;15.55;73.23;99951.34;2207933;40;20053;-82
2021/07/03 03:11:17;;;;;;;11.45;7.95;;;;;;;15.47;72.94;99957.63;2183810;40;20049;-84
2021/07/03 03:12:48;;;;;;;11.98;7.78;;;;;;;15.38;73.26;99951.47;2180566;40;20040;-81
2021/07/03 03:14:20;;;;;;;9.95;7.65;;;;;;;15.33;73.39;99959.25;2201625;40;20469;-81
2021/07/03 03:15:52;;;;;;;10.57;7.70;;;;;;;15.31;73.67;99958.56;2206493;40;20426;-80
2021/07/03 03:17:24;;;;;;;11.77;7.50;;;;;;;15.31;73.41;99969.34;2204078;40;20158;-81
2021/07/03 03:18:55;;;;;;;11.52;7.28;;;;;;;15.31;73.45;99963.97;2204597;40;20050;-81
2021/07/03 03:20:27;;;;;;;11.20;7.45;;;;;;;15.31;73.66;99958.56;2210401;40;20026;-80
2021/07/03 03:21:58;;;;;;;15.85;8.35;;;;;;;15.33;73.82;99958.41;2209936;40;20054;-81
2021/07/03 03:26:02;;;;;;;10.48;7.65;;;;;;;15.38;73.66;99939.84;2200924;40;20043;-82
2021/07/03 03:27:35;;;;;;;11.52;6.93;;;;;;;15.43;73.49;99949.06;2201482;40;20031;-83
2021/07/03 03:34:05;;;;;;;11.18;8.30;;;;;;;15.59;73.68;99931.97;2197008;40;20798;-81
2021/07/03 03:35:37;;;;;;;10.48;8.05;;;;;;;15.57;73.73;99935.88;2204257;40;20425;-81
2021/07/03 03:37:48;;;;;;;10.80;7.85;;;;;;;15.57;74.14;99934.00;2196102;40;20035;-84
2021/07/03 03:39:19;;;;;;;11.35;7.90;;;;;;;15.59;74.48;99941.88;2191787;40;20169;-84
2021/07/03 03:40:51;;;;;;;9.70;7.28;;;;;;;15.62;74.11;99941.53;2194371;40;20031;-81
2021/07/03 03:42:22;;;;;;;9.35;7.00;;;;;;;15.64;74.23;99934.13;2193749;40;20035;-81
2021/07/03 03:43:55;;;;;;;12.10;7.85;;;;;;;15.67;74.08;99936.47;2198363;40;20043;-82
2021/07/03 03:45:27;;;;;;;12.13;8.32;;;;;;;15.69;74.14;99944.34;2210948;40;20026;-81
2021/07/03 03:46:58;;;;;;;16.48;9.05;;;;;;;15.63;74.30;99945.91;2211774;40;20038;-82
2021/07/03 03:48:30;;;;;;;9.55;7.07;;;;;;;15.60;74.61;99935.47;2211925;40;20057;-81
2021/07/03 03:50:02;;;;;;;13.30;8.23;;;;;;;15.58;74.55;99942.94;2211683;40;20042;-81
2021/07/03 04:10:40;;;;;;;14.88;9.05;;;;;;;15.51;74.77;99939.25;2211115;40;20032;-80
2021/07/03 04:12:16;;;;;;;10.57;7.35;;;;;;;15.52;74.74;99936.41;2201817;40;20047;-83
2021/07/03 04:14:07;;;;;;;12.70;7.65;;;;;;;15.57;74.33;99941.25;2201261;40;20050;-83
2021/07/03 04:15:39;;;;;;;11.55;8.48;;;;;;;15.54;74.53;99944.28;2202549;40;20047;-80
2021/07/03 04:17:24;;;;;;;12.68;8.07;;;;;;;15.51;74.57;99947.34;2203947;40;20030;-82
2021/07/03 04:19:00;;;;;;;11.70;7.38;;;;;;;15.47;74.93;99954.13;2204186;40;20089;-81
2021/07/03 04:20:32;;;;;;;11.88;8.07;;;;;;;15.52;74.82;99947.19;2203809;40;20031;-80
2021/07/03 04:22:03;;;;;;;9.40;6.68;;;;;;;15.54;74.82;99952.38;2200533;40;20047;-81
2021/07/03 04:23:35;;;;;;;9.90;7.18;;;;;;;15.55;74.54;99944.09;2201617;40;20495;-81
2021/07/03 04:25:11;;;;;;;10.27;6.82;;;;;;;15.57;74.65;99949.34;2197210;40;20280;-80
2021/07/03 04:26:45;;;;;;;9.18;6.95;;;;;;;15.59;74.64;99948.13;2199873;40;20046;-81
2021/07/03 04:28:17;;;;;;;9.80;7.20;;;;;;;15.55;74.49;99946.78;2204418;40;20031;-83
2021/07/03 04:29:48;;;;;;;9.98;7.45;;;;;;;15.56;74.34;99944.97;2204415;40;20055;-82
2021/07/03 04:31:20;;;;;;;8.52;6.38;;;;;;;15.54;74.67;99952.38;2204680;40;20042;-83
2021/07/03 04:32:52;;;;;;;12.75;7.80;;;;;;;15.54;74.77;99949.69;2204568;40;20027;-83
2021/07/03 04:34:23;;;;;;;9.50;7.25;;;;;;;15.55;74.60;99954.88;2198395;40;20039;-81
2021/07/03 04:35:55;;;;;;;11.05;8.43;;;;;;;15.54;74.33;99950.50;2198407;40;20038;-83
2021/07/03 04:37:27;;;;;;;11.85;8.65;;;;;;;15.43;74.75;99953.63;2197586;40;20031;-83
2021/07/03 04:39:00;;;;;;;14.68;9.15;;;;;;;15.41;74.89;99959.19;2194635;40;20071;-82
2021/07/03 04:40:48;;;;;;;10.30;6.82;;;;;;;15.44;74.82;99958.84;2202356;40;20414;-82
2021/07/03 04:45:46;;;;;;;12.07;6.82;;;;;;;15.60;74.48;99962.41;2210850;40;20202;-81
2021/07/03 04:48:06;;;;;;;11.68;7.47;;;;;;;15.65;74.08;99954.66;2190045;40;20031;-81
2021/07/03 04:49:40;;;;;;;8.68;6.63;;;;;;;15.73;73.93;99967.19;2194812;40;20028;-83
2021/07/03 04:51:29;;;;;;;9.68;7.18;;;;;;;15.76;73.67;99966.84;2198377;40;20027;-85
2021/07/03 04:58:45;;;;;;;12.45;7.18;;;;;;;15.62;73.90;99960.41;2198539;40;20047;-83
2021/07/03 05:02:46;;;;;;;10.73;7.93;;;;;;;15.71;73.54;99956.63;2204535;40;20039;-81
2021/07/03 05:04:18;;;;;;;12.10;7.25;;;;;;;15.80;73.43;99956.53;2204144;40;20030;-80
2021/07/03 05:05:51;;;;;;;12.15;7.80;;;;;;;15.85;73.45;99957.72;2197104;40;20024;-82
2021/07/03 05:07:53;;;;;;;11.00;7.75;;;;;;;15.94;73.11;99953.09;2198172;40;20038;-83
2021/07/03 05:09:24;;;;;;;13.85;8.82;;;;;;;15.96;73.08;99951.06;2198668;40;20031;-83
2021/07/03 05:11:15;;;;;;;14.32;8.25;;;;;;;15.99;72.84;99944.47;2199663;40;20020;-85
2021/07/03 05:12:48;;;;;;;13.05;8.57;;;;;;;15.98;73.12;99932.00;2204098;40;20046;-83
2021/07/03 05:14:19;;;;;;;12.30;7.97;;;;;;;15.99;72.97;99939.06;2204071;40;20022;-84
2021/07/03 05:15:52;;;;;;;11.48;8.45;;;;;;;16.04;72.72;99942.91;2204366;40;20034;-85
2021/07/03 05:17:24;;;;;;;11.65;8.05;;;;;;;16.12;72.58;99936.56;2204134;40;20019;-84
2021/07/03 05:18:55;;;;;;;12.85;8.70;;;;;;;16.20;72.70;99943.75;2203989;40;20083;-85
2021/07/03 05:20:26;;;;;;;13.65;7.80;;;;;;;16.24;72.32;99934.28;2204301;40;20026;-84
2021/07/03 05:22:00;;;;;;;13.30;8.88;;;;;;;16.30;72.34;99930.84;2203292;40;20035;-85
2021/07/03 05:23:33;;;;;;;9.57;6.88;;;;;;;16.31;72.27;99935.22;2203973;40;20109;-80
2021/07/03 05:27:32;;;;;;;11.07;7.50;;;;;;;16.43;71.73;99932.06;2208576;40;20103;-81
2021/07/03 05:29:04;;;;;;;12.25;8.02;;;;;;;16.46;71.57;99934.38;2207855;40;20034;-84
2021/07/03 05:30:36;;;;;;;12.02;8.90;;;;;;;16.48;71.52;99926.94;2208890;40;20037;-84
2021/07/03 05:32:08;;;;;;;11.50;8.57;;;;;;;16.42;71.57;99933.91;2209723;40;20027;-86
2021/07/03 05:33:40;;;;;;;13.60;8.52;;;;;;;16.38;71.65;99928.03;2210305;40;20490;-86
2021/07/03 05:35:14;;;;;;;10.38;7.32;;;;;;;16.40;71.42;99927.03;2209918;40;20050;-87
2021/07/03 05:36:48;;;;;;;12.43;8.30;;;;;;;16.44;71.41;99925.59;2209978;40;20152;-83
2021/07/03 05:38:21;;;;;;;15.00;9.88;;;;;;;16.44;71.22;99939.09;2210065;40;20043;-84
2021/07/03 05:39:53;;;;;;;14.00;9.07;;;;;;;16.40;71.20;99927.03;2203838;40;20050;-83
2021/07/03 05:41:26;;;;;;;9.80;7.70;;;;;;;16.38;71.26;99938.84;2203435;40;20026;-81
2021/07/03 05:42:57;;;;;;;10.88;7.15;;;;;;;16.44;71.28;99939.09;2202066;40;20035;-81
2021/07/03 05:44:29;;;;;;;10.82;7.80;;;;;;;16.55;70.77;99927.84;2202382;40;20038;-82
2021/07/03 05:46:01;;;;;;;11.75;8.52;;;;;;;16.65;70.43;99933.78;2203487;40;20039;-83
2021/07/03 05:47:33;;;;;;;11.65;8.18;;;;;;;16.67;70.50;99930.94;2203950;40;20038;-83
2021/07/03 05:49:05;;;;;;;10.82;7.60;;;;;;;16.73;70.10;99932.00;2203818;40;20015;-83
2021/07/03 05:50:36;;;;;;;10.75;8.25;;;;;;;16.75;69.95;99927.28;2201222;40;20035;-82
2021/07/03 05:52:07;;;;;;;14.52;8.68;;;;;;;16.80;69.93;99924.88;2203322;40;20042;-84
2021/07/03 05:53:41;;;;;;;14.57;9.57;;;;;;;16.81;69.62;99926.53;2203602;40;20026;-84
2021/07/03 05:55:13;;;;;;;12.95;10.77;;;;;;;16.91;69.51;99927.06;2204056;40;20034;-84
2021/07/03 05:56:45;;;;;;;11.60;9.18;;;;;;;17.03;69.11;99929.31;2203788;40;20502;-82
2021/07/03 05:58:17;;;;;;;15.88;8.52;;;;;;;17.03;68.92;99929.31;2203734;40;20046;-86
2021/07/03 05:59:50;;;;;;;12.57;8.48;;;;;;;17.05;68.85;99924.56;2203447;40;20019;-85
2021/07/03 06:01:22;;;;;;;11.75;8.48;;;;;;;17.05;68.69;99929.97;2202172;40;20099;-84
2021/07/03 06:02:54;;;;;;;12.30;8.32;;;;;;;17.07;68.63;99920.63;2200764;40;20039;-82
2021/07/03 06:04:25;;;;;;;10.93;7.80;;;;;;;17.11;68.47;99926.47;2201253;40;20031;-81
2021/07/03 06:05:56;;;;;;;11.52;7.90;;;;;;;17.17;68.65;99920.34;2201991;40;20035;-82
2021/07/03 06:07:28;;;;;;;10.23;7.38;;;;;;;17.25;68.24;99922.91;2201764;40;20042;-83
2021/07/03 06:09:01;;;;;;;11.80;7.38;;;;;;;17.34;67.90;99920.09;2201233;40;20039;-82
2021/07/03 06:10:33;;;;;;;10.23;7.72;;;;;;;17.41;67.60;99920.97;2202471;40;20039;-87
2021/07/03 06:12:05;;;;;;;10.57;7.20;;;;;;;17.47;67.39;99906.72;2203578;40;20044;-86
2021/07/03 06:13:37;;;;;;;11.82;7.30;;;;;;;17.58;67.36;99916.16;2199599;40;20041;-81
2021/07/03 06:15:10;;;;;;;10.63;7.97;;;;;;;17.65;66.92;99919.75;2203997;40;20038;-81
2021/07/03 06:16:43;;;;;;;9.43;6.38;;;;;;;17.71;66.79;99920.84;2205718;40;20034;-81
2021/07/03 06:18:13;;;;;;;8.20;6.50;;;;;;;17.79;66.33;99918.00;2209519;40;20018;-83
2021/07/03 06:19:45;;;;;;;11.80;8.35;;;;;;;17.87;66.13;99909.75;2205133;40;20416;-83
2021/07/03 06:21:17;;;;;;;9.65;6.68;;;;;;;17.91;65.86;99908.34;2206374;40;20034;-81
2021/07/03 06:22:49;;;;;;;8.95;6.53;;;;;;;17.97;65.73;99908.59;2205545;40;20049;-82
2021/07/03 06:24:22;;;;;;;10.45;7.72;;;;;;;18.05;65.15;99911.16;2207141;40;20039;-82
2021/07/03 06:25:54;;;;;;;10.48;8.00;;;;;;;18.10;65.20;99908.69;2202600;40;20026;-85
2021/07/03 06:27:25;;;;;;;8.88;6.43;;;;;;;18.16;64.86;99913.31;2208389;40;20026;-85
2021/07/03 06:28:57;;;;;;;8.82;6.65;;;;;;;18.26;64.83;99912.13;2208245;40;20046;-86
2021/07/03 06:30:29;;;;;;;11.43;6.68;;;;;;;18.34;64.40;99909.25;2190070;40;20870;-81
2021/07/03 06:32:01;;;;;;;9.63;6.75;;;;;;;18.43;64.57;99896.41;2178460;40;20024;-84
2021/07/03 06:33:33;;;;;;;9.30;6.65;;;;;;;18.49;64.10;99898.31;2178373;41;20437;-85
2021/07/03 06:35:07;;;;;;;8.73;6.72;;;;;;;18.52;64.04;99900.63;2176717;41;20132;-85
2021/07/03 06:36:39;;;;;;;9.98;7.13;;;;;;;18.57;63.90;99903.53;2172530;41;20605;-84
2021/07/03 06:38:11;;;;;;;13.32;7.43;;;;;;;18.65;63.73;99910.66;2185035;40;20043;-84
2021/07/03 06:39:45;;;;;;;9.77;7.30;;;;;;;18.74;63.39;99906.75;2184697;40;20028;-82
2021/07/03 06:41:16;;;;;;;11.73;7.63;;;;;;;18.85;63.00;99899.91;2187083;40;20044;-84
2021/07/03 06:42:48;;;;;;;11.70;7.38;;;;;;;18.97;62.86;99901.03;2189730;40;20035;-83
2021/07/03 06:44:19;;;;;;;13.43;10.82;;;;;;;19.08;62.39;99898.78;2182410;40;20375;-82
2021/07/03 06:45:51;;;;;;;11.52;8.23;;;;;;;19.14;62.02;99893.38;2184659;40;20040;-85
2021/07/03 06:47:23;;;;;;;11.32;7.40;;;;;;;19.24;61.90;99900.28;2187472;40;20036;-83
2021/07/03 06:48:54;;;;;;;11.55;7.97;;;;;;;19.30;61.62;99891.31;2193136;40;20086;-82
2021/07/03 06:50:26;;;;;;;9.77;6.80;;;;;;;19.40;61.19;99890.94;2208753;40;20026;-84
2021/07/03 06:51:59;;;;;;;10.32;6.53;;;;;;;19.55;60.44;99888.84;2208299;40;20035;-84
2021/07/03 06:53:31;;;;;;;9.35;6.07;;;;;;;19.69;59.83;99886.97;2201193;40;20034;-82
2021/07/03 06:55:05;;;;;;;10.40;6.03;;;;;;;19.82;59.70;99888.03;2200259;40;20358;-84
2021/07/03 06:56:36;;;;;;;14.35;10.25;;;;;;;19.97;59.16;99883.22;2205317;40;20030;-82
2021/07/03 06:58:08;;;;;;;12.23;8.82;;;;;;;20.11;58.51;99892.19;2205730;40;20046;-82
2021/07/03 06:59:40;;;;;;;9.90;6.57;;;;;;;20.24;57.99;99888.59;2208414;40;20081;-85
2021/07/03 07:01:12;;;;;;;9.52;7.47;;;;;;;20.41;57.35;99892.53;2209509;40;20057;-82
2021/07/03 07:02:43;;;;;;;8.45;6.07;;;;;;;20.49;56.99;99885.22;2208356;40;20022;-83
2021/07/03 07:04:17;;;;;;;7.13;5.38;;;;;;;20.56;56.59;99883.31;2194654;40;20781;-86
2021/07/03 07:05:49;;;;;;;7.57;5.68;;;;;;;20.57;56.29;99879.53;2205924;40;20041;-85
2021/07/03 07:07:21;;;;;;;10.18;4.68;;;;;;;20.68;56.13;99883.47;2212195;40;20688;-83
2021/07/03 07:08:52;;;;;;;8.85;4.82;;;;;;;20.79;55.84;99881.97;2209686;40;20022;-86
2021/07/03 07:10:25;;;;;;;7.65;5.25;;;;;;;20.92;55.61;99886.53;2215356;40;20042;-84
2021/07/03 07:12:14;;;;;;;8.15;5.05;;;;;;;21.06;55.15;99881.84;2197588;40;21497;-84
2021/07/03 07:13:46;;;;;;;9.85;5.28;;;;;;;21.11;54.63;99879.31;2202547;40;20497;-84
2021/07/03 07:15:17;;;;;;;6.90;5.35;;;;;;;21.17;54.61;99876.56;2183384;40;20031;-83
2021/07/03 07:16:49;;;;;;;8.82;5.55;;;;;;;21.28;54.27;99885.88;2201997;40;20027;-81
2021/07/03 07:18:21;;;;;;;6.45;4.90;;;;;;;21.46;53.62;99882.41;2205117;40;20054;-83
2021/07/03 07:19:51;;;;;;;6.35;4.78;;;;;;;21.62;53.38;99883.78;2208899;40;20046;-82
2021/07/03 07:21:24;;;;;;;10.88;5.60;;;;;;;21.68;53.00;99879.31;2190696;40;20031;-85
2021/07/03 07:22:55;;;;;;;8.73;5.53;;;;;;;21.75;52.79;99885.56;2195614;40;20042;-85
2021/07/03 07:24:27;;;;;;;7.97;5.25;;;;;;;21.92;52.50;99869.47;2188342;40;20036;-83
2021/07/03 07:25:59;;;;;;;9.75;6.00;;;;;;;22.05;52.35;99867.69;2186686;40;20036;-84
2021/07/03 07:27:31;;;;;;;7.93;4.95;;;;;;;22.16;51.86;99869.69;2203597;40;20088;-86
2021/07/03 07:29:03;;;;;;;7.75;4.93;;;;;;;22.18;51.33;99873.00;2209128;40;20022;-84
2021/07/03 07:30:35;;;;;;;9.07;5.93;;;;;;;22.11;51.13;99862.19;2209407;40;20026;-82
2021/07/03 07:32:08;;;;;;;7.45;5.00;;;;;;;22.10;51.29;99859.72;2196758;40;20038;-83
2021/07/03 07:33:39;;;;;;;9.88;5.95;;;;;;;22.07;51.19;99865.59;2204672;40;20031;-84
2021/07/03 07:35:11;;;;;;;10.38;5.45;;;;;;;22.08;51.11;99857.19;2206090;40;20045;-84
2021/07/03 07:36:43;;;;;;;7.30;5.05;;;;;;;22.15;50.75;99864.47;2208915;40;20046;-86
2021/07/03 07:38:14;;;;;;;6.90;5.15;;;;;;;22.25;50.27;99859.31;2206847;40;20034;-84
2021/07/03 07:39:46;;;;;;;9.57;5.53;;;;;;;22.31;50.15;99855.69;2207904;40;20049;-83
2021/07/03 07:41:19;;;;;;;7.25;5.18;;;;;;;22.39;49.81;99865.44;2207913;40;20046;-84
2021/07/03 07:42:51;;;;;;;9.57;5.35;;;;;;;22.48;49.57;99850.50;2208647;40;20038;-83
2021/07/03 07:44:23;;;;;;;7.28;5.00;;;;;;;22.59;49.56;99855.16;2201511;40;20050;-85
2021/07/03 07:45:56;;;;;;;8.05;5.78;;;;;;;22.75;49.20;99861.88;2202242;40;20420;-85
2021/07/03 07:47:33;;;;;;;7.90;5.43;;;;;;;22.86;48.60;99867.63;2201884;40;20031;-84
2021/07/03 07:49:13;;;;;;;8.43;5.03;;;;;;;22.99;48.36;99855.69;2202123;40;20078;-83
2021/07/03 07:50:45;;;;;;;8.38;5.40;;;;;;;23.10;48.32;99852.19;2202773;40;20653;-83
2021/07/03 07:52:17;;;;;;;7.55;5.55;;;;;;;23.12;48.14;99858.25;2208329;40;20038;-86
2021/07/03 07:53:49;;;;;;;8.00;5.30;;;;;;;23.20;48.16;99851.63;2190878;40;20043;-84
2021/07/03 07:55:23;;;;;;;8.98;6.22;;;;;;;23.28;48.06;99851.31;2178970;40;20128;-85
2021/07/03 07:56:59;;;;;;;7.72;5.60;;;;;;;23.34;47.91;99846.81;2176253;40;20536;-84
2021/07/03 07:58:30;;;;;;;8.70;5.28;;;;;;;23.38;47.64;99842.56;2181837;41;20130;-84